Arichat, Canada
Current Conditions -  °F | °C
As of 9:32 PM on Thursday 27 Nov 2014 (Local Time) from CYPD Reporting Station
Light Snow Light Snow  
Wind Chill: 20°   Ceiling: 1600
Heat Index: 30°   Visibility: 5mi
Dew Point: 27°   Wind: 14mph
Humidity: 86%   Direction: 310°NW
Pressure: 29.76"   Gusts: 25mph
Location:  45.52°N, 61.02°W
Report Text: CYPD 280132Z AUTO 31012G22KT 5SM -SN BKN016 OVC023 M01/M03 A2976 RMK SLP083
Loading
Personal Weather Stations






























Interactive Weather Map New forecast layout! Learn more

10-Day Weather Forecast

Advertisements
Track Severe Weather on mobile